Time;durP1;ratioP1;P1;durP2;ratioP2;P2;SDS_P1;SDS_P2;PMS_P1;PMS_P2;Temp;Humidity;BMP_temperature;BMP_pressure;BME280_temperature;BME280_humidity;BME280_pressure;Samples;Min_cycle;Max_cycle;Signal;HPM_P1;HPM_P2
2022/05/28 00:01:31;;;;;;;9.23;2.45;;;;;;;11.01;66.10;102043.94;5038197;28;20101;-70
2022/05/28 00:04:04;;;;;;;13.50;2.78;;;;;;;10.99;66.21;102035.16;5036111;28;20042;-70
2022/05/28 00:06:35;;;;;;;11.00;2.63;;;;;;;10.98;66.17;102029.91;5040386;28;20081;-71
2022/05/28 00:09:03;;;;;;;11.60;2.53;;;;;;;10.95;66.43;102037.84;5041310;28;20054;-72
2022/05/28 00:11:35;;;;;;;12.02;2.63;;;;;;;10.96;66.68;102042.25;5031913;28;20064;-76
2022/05/28 00:14:05;;;;;;;8.48;2.50;;;;;;;10.96;66.64;102039.59;5043616;28;20034;-77
2022/05/28 00:16:33;;;;;;;10.35;2.72;;;;;;;10.94;66.36;102031.72;5040847;28;20068;-77
2022/05/28 00:19:00;;;;;;;10.55;2.58;;;;;;;10.94;66.75;102039.63;5039451;28;20038;-73
2022/05/28 00:21:28;;;;;;;11.32;2.65;;;;;;;10.94;66.74;102037.00;5041903;28;20548;-73
2022/05/28 00:23:55;;;;;;;9.20;2.30;;;;;;;10.96;66.90;102040.50;5044299;28;20041;-72
2022/05/28 00:26:22;;;;;;;10.23;3.05;;;;;;;10.93;67.14;102040.53;5032705;28;20034;-73
2022/05/28 00:28:50;;;;;;;11.38;2.90;;;;;;;10.92;67.55;102036.13;5054452;28;20045;-73
2022/05/28 00:31:19;;;;;;;11.43;2.53;;;;;;;10.92;67.01;102035.28;5031804;28;20050;-72
2022/05/28 00:33:46;;;;;;;10.13;3.03;;;;;;;10.89;67.49;102030.88;5039483;28;20125;-74
2022/05/28 00:36:14;;;;;;;11.80;2.90;;;;;;;10.86;67.54;102029.16;5036276;28;20041;-74
2022/05/28 00:38:44;;;;;;;12.50;2.80;;;;;;;10.86;67.29;102028.31;5033055;28;20041;-74
2022/05/28 00:41:12;;;;;;;6.78;2.63;;;;;;;10.84;67.55;102027.44;5038522;28;20496;-74
2022/05/28 00:43:43;;;;;;;9.80;2.40;;;;;;;10.80;67.62;102031.00;5039012;28;20090;-75
2022/05/28 00:46:18;;;;;;;12.38;2.65;;;;;;;10.76;68.04;102029.31;5038423;28;20042;-73
2022/05/28 00:48:53;;;;;;;10.75;3.10;;;;;;;10.71;67.97;102026.72;5032952;28;20046;-74
2022/05/28 00:51:27;;;;;;;11.38;2.65;;;;;;;10.70;68.05;102027.63;5032717;28;20038;-73
2022/05/28 00:54:00;;;;;;;10.63;3.03;;;;;;;10.65;67.91;102018.88;5039343;28;20050;-75
2022/05/28 00:56:28;;;;;;;11.65;3.30;;;;;;;10.65;68.26;102024.16;5036694;28;20045;-75
2022/05/28 00:58:56;;;;;;;10.77;2.53;;;;;;;10.65;68.21;102025.03;5040043;28;20045;-75
2022/05/28 01:01:27;;;;;;;10.80;2.72;;;;;;;10.62;68.35;102019.78;5040266;28;20048;-75
2022/05/28 01:04:23;;;;;;;10.18;2.83;;;;;;;10.60;68.72;102025.97;5033441;28;20046;-76
2022/05/28 01:07:29;;;;;;;11.20;3.50;;;;;;;10.57;68.71;102025.13;5040614;28;20042;-76
2022/05/28 01:10:28;;;;;;;13.38;2.85;;;;;;;10.55;68.83;102023.41;5044287;28;20116;-77
2022/05/28 01:13:14;;;;;;;9.85;2.70;;;;;;;10.50;68.89;102019.94;5031211;28;20134;-75
2022/05/28 01:15:59;;;;;;;12.75;2.75;;;;;;;10.45;69.08;102014.69;5033517;28;20054;-74
2022/05/28 01:18:39;;;;;;;7.80;2.45;;;;;;;10.42;69.16;102017.41;5037199;28;20046;-74
2022/05/28 01:21:20;;;;;;;12.35;2.85;;;;;;;10.37;69.38;102012.19;5029891;28;20038;-74
2022/05/28 01:24:08;;;;;;;10.57;3.00;;;;;;;10.35;69.48;102015.66;5032219;28;20049;-75
2022/05/28 01:26:57;;;;;;;8.77;2.97;;;;;;;10.30;69.66;102020.13;5044828;28;20041;-74
2022/05/28 01:29:33;;;;;;;16.67;3.65;;;;;;;10.25;69.84;102014.91;5037995;28;20066;-75
2022/05/28 01:32:03;;;;;;;11.95;2.63;;;;;;;10.23;70.26;102017.53;5042817;28;20041;-75
2022/05/28 01:34:32;;;;;;;11.98;2.90;;;;;;;10.18;70.31;102019.34;5047544;28;20041;-75
2022/05/28 01:37:01;;;;;;;12.15;2.92;;;;;;;10.14;70.12;102012.34;5043431;28;20053;-76
2022/05/28 01:39:30;;;;;;;9.40;3.20;;;;;;;10.14;70.77;102009.72;5031152;28;20049;-75
2022/05/28 01:41:58;;;;;;;13.20;3.35;;;;;;;10.11;70.86;102007.13;5030670;28;20049;-74
2022/05/28 01:44:28;;;;;;;10.30;3.42;;;;;;;10.08;70.70;102004.53;5033507;28;20045;-75
2022/05/28 01:46:57;;;;;;;11.77;3.08;;;;;;;10.05;71.15;102009.81;5034875;28;20042;-76
2022/05/28 01:49:27;;;;;;;8.88;3.08;;;;;;;10.02;71.28;102008.09;5032614;28;20061;-74
2022/05/28 01:51:59;;;;;;;9.30;2.78;;;;;;;10.00;71.38;102007.22;5034946;28;20052;-75
2022/05/28 01:54:35;;;;;;;10.43;2.85;;;;;;;9.97;71.59;102009.00;5037242;28;20044;-76
2022/05/28 01:57:03;;;;;;;9.50;2.50;;;;;;;9.95;71.75;102007.25;5037275;28;20545;-77
2022/05/28 01:59:35;;;;;;;15.63;3.40;;;;;;;9.93;71.61;102008.16;5050195;28;20048;-75
2022/05/28 02:02:09;;;;;;;12.93;2.97;;;;;;;9.93;72.42;102009.03;5035229;28;20050;-73
2022/05/28 02:04:40;;;;;;;11.00;3.25;;;;;;;9.93;72.31;102002.91;5036135;28;20045;-73
2022/05/28 02:07:07;;;;;;;11.70;3.70;;;;;;;9.96;72.67;101997.63;5050208;28;20034;-76
2022/05/28 02:09:41;;;;;;;13.98;3.13;;;;;;;9.99;73.19;101996.72;5054218;28;20049;-74
2022/05/28 02:12:25;;;;;;;17.52;3.45;;;;;;;10.00;72.98;101994.03;5041769;28;20077;-75
2022/05/28 02:15:38;;;;;;;15.60;3.40;;;;;;;10.05;73.18;101999.28;5037516;28;20069;-75
2022/05/28 02:18:23;;;;;;;12.93;2.72;;;;;;;10.03;73.56;101983.50;5043426;28;20136;-75
2022/05/28 02:21:09;;;;;;;12.40;2.80;;;;;;;10.04;73.67;101979.97;5044982;28;20037;-73
2022/05/28 02:23:57;;;;;;;11.55;2.80;;;;;;;10.04;73.40;101974.69;5044376;28;20050;-73
2022/05/28 02:26:53;;;;;;;14.00;2.85;;;;;;;10.07;74.01;101963.25;5047416;28;20034;-77
2022/05/28 02:29:21;;;;;;;12.05;2.42;;;;;;;10.10;74.07;101964.09;5048886;28;20057;-76
2022/05/28 02:31:50;;;;;;;15.23;2.88;;;;;;;10.09;74.35;101964.97;5037390;28;20223;-78
2022/05/28 02:34:20;;;;;;;17.45;3.33;;;;;;;10.09;74.31;101970.25;5057358;28;20038;-75
2022/05/28 02:36:48;;;;;;;13.07;2.92;;;;;;;10.09;74.43;101970.25;5042874;28;20045;-76
2022/05/28 02:39:15;;;;;;;14.38;2.55;;;;;;;10.09;74.58;101979.91;5045675;28;20566;-76
2022/05/28 02:41:42;;;;;;;12.45;3.15;;;;;;;10.09;74.52;101978.16;5037394;28;20046;-75
2022/05/28 02:44:09;;;;;;;11.40;3.53;;;;;;;10.07;74.84;101986.97;5048507;28;20187;-77
2022/05/28 02:46:37;;;;;;;11.35;3.28;;;;;;;10.05;74.93;101981.72;5042669;28;20415;-76
2022/05/28 02:49:04;;;;;;;10.40;3.08;;;;;;;10.05;75.17;101986.09;5049949;28;20049;-74
2022/05/28 02:51:31;;;;;;;13.38;2.80;;;;;;;10.02;75.07;101978.25;5033386;28;20050;-75
2022/05/28 02:53:58;;;;;;;9.70;2.78;;;;;;;9.98;75.25;101982.63;5045490;28;20064;-76
2022/05/28 02:56:25;;;;;;;8.40;3.10;;;;;;;9.90;75.16;101974.84;5045456;28;20049;-75
2022/05/28 02:58:53;;;;;;;13.90;3.08;;;;;;;9.92;75.18;101987.97;5036155;28;20038;-76
2022/05/28 03:01:34;;;;;;;13.00;2.90;;;;;;;9.92;75.80;101990.63;5042242;28;20820;-77
2022/05/28 03:04:05;;;;;;;11.57;2.70;;;;;;;9.92;75.65;101991.47;5050263;28;20049;-75
2022/05/28 03:06:35;;;;;;;11.40;3.20;;;;;;;9.91;75.62;101996.78;5053203;28;20092;-77
2022/05/28 03:09:07;;;;;;;9.18;3.10;;;;;;;9.86;75.77;101991.53;5041154;28;20157;-76
2022/05/28 03:11:36;;;;;;;14.50;3.90;;;;;;;9.84;75.76;101995.94;5044531;28;20566;-75
2022/05/28 03:14:05;;;;;;;12.10;3.60;;;;;;;9.81;76.13;101988.09;5042443;28;20038;-75
2022/05/28 03:16:33;;;;;;;13.68;4.05;;;;;;;9.80;76.40;101991.59;5033993;28;20030;-75
2022/05/28 03:19:00;;;;;;;18.27;3.35;;;;;;;9.81;76.58;101990.72;5031974;28;20109;-76
2022/05/28 03:21:27;;;;;;;10.82;3.30;;;;;;;9.81;76.44;101998.63;5034539;28;20041;-73
2022/05/28 03:23:54;;;;;;;10.43;3.88;;;;;;;9.78;76.49;101988.97;5040586;28;20102;-74
2022/05/28 03:26:26;;;;;;;12.88;3.35;;;;;;;9.75;76.83;101983.75;5034679;28;20045;-74
2022/05/28 03:28:56;;;;;;;13.75;3.63;;;;;;;9.78;77.01;101996.00;5042887;28;20042;-73
2022/05/28 03:31:27;;;;;;;14.55;3.65;;;;;;;9.76;77.03;101990.78;5042356;28;20096;-73
2022/05/28 03:33:56;;;;;;;16.08;3.47;;;;;;;9.74;77.24;101991.63;5044891;28;20050;-74
2022/05/28 03:36:25;;;;;;;11.75;3.65;;;;;;;9.74;77.35;101989.00;5042726;28;20081;-74
2022/05/28 03:38:52;;;;;;;16.23;3.95;;;;;;;9.73;77.55;101996.06;5042470;28;20054;-75
2022/05/28 03:41:23;;;;;;;11.18;3.60;;;;;;;9.74;77.59;102005.69;5044637;28;20860;-76
2022/05/28 03:43:50;;;;;;;11.23;3.67;;;;;;;9.75;77.77;102010.09;5043825;28;20045;-76
2022/05/28 03:46:33;;;;;;;12.77;3.92;;;;;;;9.75;77.96;101998.66;5032389;28;20057;-75
2022/05/28 03:49:16;;;;;;;15.57;3.63;;;;;;;9.78;78.46;102011.81;5036477;28;20072;-76
2022/05/28 03:51:44;;;;;;;14.23;3.40;;;;;;;9.82;78.31;102010.88;5038569;28;20041;-75
2022/05/28 03:54:11;;;;;;;18.13;3.92;;;;;;;9.88;78.52;102007.31;5034217;28;20037;-75
2022/05/28 03:56:42;;;;;;;10.85;3.67;;;;;;;9.97;78.17;102001.97;5032857;28;20073;-75
2022/05/28 03:59:10;;;;;;;9.70;2.97;;;;;;;10.07;78.49;102002.78;5042782;28;20046;-75
2022/05/28 04:01:38;;;;;;;17.23;3.63;;;;;;;10.20;78.02;102009.69;5031801;28;20037;-73
2022/05/28 04:04:06;;;;;;;14.43;4.32;;;;;;;10.23;77.87;102006.13;5040853;28;20528;-73
2022/05/28 04:06:37;;;;;;;15.05;3.40;;;;;;;10.25;77.97;102007.84;5063590;28;20046;-76
2022/05/28 04:09:06;;;;;;;11.50;2.30;;;;;;;10.30;78.01;102004.31;5049489;28;20060;-76
2022/05/28 04:11:35;;;;;;;9.43;2.55;;;;;;;10.29;78.12;102013.97;5046911;28;20049;-73
2022/05/28 04:14:04;;;;;;;13.95;3.00;;;;;;;10.31;78.42;102019.22;5043139;28;20117;-73
2022/05/28 04:16:34;;;;;;;15.10;3.38;;;;;;;10.45;78.03;102019.97;5039313;28;20041;-78
2022/05/28 04:19:01;;;;;;;13.55;2.45;;;;;;;10.61;77.80;102020.69;5031458;28;20134;-76
2022/05/28 04:21:29;;;;;;;11.10;2.70;;;;;;;10.65;77.68;102011.84;5042315;28;20045;-77
2022/05/28 04:23:57;;;;;;;13.35;2.85;;;;;;;10.69;77.43;102015.31;5042656;28;20992;-76
2022/05/28 04:26:25;;;;;;;9.98;2.70;;;;;;;10.76;77.33;102019.63;5046177;28;20076;-77
2022/05/28 04:28:53;;;;;;;10.40;2.60;;;;;;;10.82;77.27;102023.94;5045632;28;20045;-77
2022/05/28 04:31:20;;;;;;;11.20;2.55;;;;;;;10.88;77.07;102015.97;5036142;28;20457;-76
2022/05/28 04:33:47;;;;;;;11.13;2.78;;;;;;;10.88;77.13;102026.53;5035173;28;20038;-76
2022/05/28 04:36:15;;;;;;;14.27;2.35;;;;;;;10.91;77.13;102028.25;5036872;28;20038;-75
2022/05/28 04:38:44;;;;;;;10.52;2.35;;;;;;;10.98;76.97;102028.16;5049039;28;20045;-75
2022/05/28 04:41:11;;;;;;;10.05;2.50;;;;;;;11.07;76.64;102029.78;5046616;28;20043;-75
2022/05/28 04:43:38;;;;;;;12.23;2.72;;;;;;;11.15;76.83;102033.19;5044729;28;20073;-72
2022/05/28 04:46:06;;;;;;;14.25;2.67;;;;;;;11.36;76.20;102031.13;5049050;28;20041;-77
2022/05/28 04:48:34;;;;;;;12.38;2.53;;;;;;;11.72;74.79;102035.88;5049048;28;20080;-77
2022/05/28 04:51:02;;;;;;;11.77;2.33;;;;;;;11.81;74.23;102027.81;5042979;28;20041;-76
2022/05/28 04:53:29;;;;;;;9.45;1.98;;;;;;;11.78;74.38;102031.38;5042825;28;20128;-77
2022/05/28 04:55:56;;;;;;;14.77;2.53;;;;;;;11.80;74.24;102026.09;5040442;28;20039;-74
2022/05/28 04:58:23;;;;;;;10.07;2.30;;;;;;;11.84;74.36;102029.53;5048151;28;20166;-72
2022/05/28 05:00:50;;;;;;;14.82;2.47;;;;;;;11.86;74.13;102027.72;5048684;28;20510;-75
2022/05/28 05:03:17;;;;;;;10.13;2.50;;;;;;;11.84;74.21;102035.69;5048044;28;20828;-73
2022/05/28 05:05:45;;;;;;;11.13;2.38;;;;;;;11.81;74.45;102035.72;5043987;28;20052;-74
2022/05/28 05:08:12;;;;;;;13.50;2.58;;;;;;;12.07;73.44;102024.75;5045009;28;20034;-74
2022/05/28 05:10:44;;;;;;;8.27;1.90;;;;;;;12.61;71.59;102033.44;5044780;28;20055;-73
2022/05/28 05:13:11;;;;;;;15.25;2.05;;;;;;;12.84;70.44;102034.78;5049775;28;20057;-73
2022/05/28 05:15:39;;;;;;;11.45;2.05;;;;;;;12.93;69.92;102038.97;5044827;28;20052;-75
2022/05/28 05:18:08;;;;;;;9.48;1.77;;;;;;;13.57;68.06;102036.72;5030329;28;20128;-74
2022/05/28 05:20:35;;;;;;;11.63;2.10;;;;;;;14.10;66.19;102035.38;5030322;28;20052;-73
2022/05/28 05:23:03;;;;;;;10.95;2.10;;;;;;;14.50;64.63;102034.31;5038920;28;20033;-72
2022/05/28 05:25:31;;;;;;;8.05;1.55;;;;;;;15.41;61.24;102035.25;5043535;28;20050;-75
2022/05/28 05:27:59;;;;;;;7.57;1.52;;;;;;;17.79;55.46;102039.06;5042212;28;20053;-74
2022/05/28 05:30:27;;;;;;;7.93;1.35;;;;;;;19.89;47.89;102033.97;5036990;28;20049;-75
2022/05/28 05:32:55;;;;;;;6.15;1.20;;;;;;;21.39;43.93;102022.38;5039566;28;20042;-71
2022/05/28 05:35:22;;;;;;;7.32;1.27;;;;;;;22.40;41.32;102033.47;5030090;28;20748;-74
2022/05/28 05:37:50;;;;;;;6.05;1.40;;;;;;;23.14;38.53;102025.25;5028945;28;20042;-73
2022/05/28 05:40:19;;;;;;;7.25;1.05;;;;;;;23.64;36.83;102025.56;5043718;28;20143;-74
2022/05/28 05:42:47;;;;;;;4.45;0.88;;;;;;;24.09;35.58;102035.19;5037598;28;20491;-73
2022/05/28 05:45:14;;;;;;;9.75;1.35;;;;;;;24.46;35.00;102033.47;5049694;28;20049;-75
2022/05/28 05:47:43;;;;;;;6.25;1.08;;;;;;;24.57;33.99;102035.41;5057758;28;20069;-76
2022/05/28 05:50:11;;;;;;;6.13;1.20;;;;;;;24.68;33.54;102031.06;5054342;28;20046;-71
2022/05/28 05:52:40;;;;;;;6.13;1.25;;;;;;;25.01;32.20;102032.34;5054038;28;20046;-74
2022/05/28 05:55:16;;;;;;;5.03;1.38;;;;;;;24.75;32.10;102035.94;5040898;28;20041;-74
2022/05/28 05:57:44;;;;;;;4.75;0.73;;;;;;;24.84;32.28;102034.41;5033875;28;20101;-73
2022/05/28 06:00:12;;;;;;;4.93;0.98;;;;;;;24.90;32.41;102038.50;5037778;28;20077;-73
2022/05/28 06:02:39;;;;;;;7.22;1.05;;;;;;;25.27;32.03;102035.81;5032276;28;20843;-73
2022/05/28 06:05:07;;;;;;;4.65;0.77;;;;;;;24.80;32.22;102038.31;5034813;28;20038;-72
2022/05/28 06:07:35;;;;;;;6.78;0.93;;;;;;;25.16;31.27;102043.84;5059552;28;20064;-72
2022/05/28 06:10:03;;;;;;;4.97;0.80;;;;;;;24.24;32.64;102044.88;5050483;28;20490;-70
2022/05/28 06:12:30;;;;;;;3.70;0.98;;;;;;;22.14;34.72;102037.72;5043973;28;20180;-69
2022/05/28 06:14:57;;;;;;;6.13;1.00;;;;;;;19.90;38.90;102054.44;5049393;28;20049;-72
2022/05/28 06:17:27;;;;;;;6.15;1.10;;;;;;;18.29;43.26;102062.75;5033340;28;20149;-74
2022/05/28 06:19:54;;;;;;;4.70;0.65;;;;;;;16.91;45.68;102049.59;5044345;28;20050;-72
2022/05/28 06:22:21;;;;;;;6.07;0.70;;;;;;;15.98;47.85;102066.19;5046012;28;20058;-75
2022/05/28 06:24:48;;;;;;;5.80;0.80;;;;;;;15.42;49.44;102059.09;5050443;28;20034;-73
2022/05/28 06:27:15;;;;;;;6.50;1.00;;;;;;;15.03;50.90;102062.06;5047227;28;20033;-75
2022/05/28 06:29:44;;;;;;;5.60;0.88;;;;;;;14.71;52.14;102075.34;5038524;28;20046;-73
2022/05/28 06:32:12;;;;;;;5.28;0.80;;;;;;;14.50;51.34;102066.16;5037242;28;20049;-74
2022/05/28 06:34:40;;;;;;;4.18;1.10;;;;;;;14.31;52.91;102071.09;5048528;28;20041;-74
2022/05/28 06:37:09;;;;;;;8.27;1.10;;;;;;;14.23;53.47;102063.34;5047880;28;20042;-73
2022/05/28 06:39:36;;;;;;;4.47;1.00;;;;;;;14.21;53.73;102070.47;5030905;28;20050;-73
2022/05/28 06:42:09;;;;;;;5.68;0.70;;;;;;;14.21;52.82;102070.47;5045912;28;20041;-72
2022/05/28 06:44:36;;;;;;;4.18;0.80;;;;;;;14.20;52.73;102071.38;5045510;28;20046;-73
2022/05/28 06:47:04;;;;;;;7.00;0.80;;;;;;;14.14;53.27;102071.53;5032944;28;20625;-74
2022/05/28 06:49:31;;;;;;;10.38;1.20;;;;;;;14.21;53.34;102066.94;5029783;28;20532;-74
2022/05/28 06:51:59;;;;;;;2.65;0.63;;;;;;;14.32;52.78;102071.97;5036592;28;20037;-73
2022/05/28 06:54:27;;;;;;;5.38;0.70;;;;;;;14.42;51.94;102076.09;5031435;28;20056;-73
2022/05/28 06:56:54;;;;;;;4.07;0.80;;;;;;;14.40;50.97;102068.19;5038569;28;20041;-73
2022/05/28 06:59:21;;;;;;;4.15;0.75;;;;;;;14.47;51.64;102071.56;5032463;28;20048;-74
2022/05/28 07:01:48;;;;;;;8.25;0.80;;;;;;;14.57;51.70;102073.06;5033459;28;20042;-72
2022/05/28 07:04:16;;;;;;;4.68;0.93;;;;;;;14.67;51.41;102079.00;5034494;28;20116;-73
2022/05/28 07:06:43;;;;;;;4.85;1.05;;;;;;;14.80;50.74;102082.19;5037954;28;20117;-74
2022/05/28 07:09:10;;;;;;;6.88;1.02;;;;;;;14.93;50.62;102076.50;5053969;28;20049;-75
2022/05/28 07:11:37;;;;;;;6.55;1.35;;;;;;;15.01;50.46;102086.00;5046695;28;20078;-75
2022/05/28 07:14:05;;;;;;;4.90;0.82;;;;;;;15.10;50.12;102079.56;5033199;28;20101;-75
2022/05/28 07:16:32;;;;;;;4.68;0.68;;;;;;;15.12;49.79;102083.03;5051377;28;20040;-74
2022/05/28 07:18:59;;;;;;;4.90;0.90;;;;;;;14.75;50.66;102087.59;5050773;28;20429;-74
2022/05/28 07:21:26;;;;;;;11.75;1.55;;;;;;;14.70;51.14;102086.03;5037303;28;20037;-73
2022/05/28 07:23:55;;;;;;;7.95;0.80;;;;;;;14.52;51.99;102077.59;5035941;28;21041;-68
2022/05/28 07:26:22;;;;;;;9.20;1.38;;;;;;;14.55;50.85;102088.13;5037747;28;20053;-76
2022/05/28 07:28:52;;;;;;;4.95;1.00;;;;;;;14.26;51.35;102100.41;5040939;28;20049;-74
2022/05/28 07:31:22;;;;;;;6.18;1.02;;;;;;;14.22;51.47;102093.41;5031271;28;20120;-75
2022/05/28 07:33:50;;;;;;;5.40;1.05;;;;;;;14.49;51.87;102088.31;5049108;28;20038;-75
2022/05/28 07:36:24;;;;;;;6.15;0.93;;;;;;;14.62;51.81;102095.91;5047032;28;20220;-73
2022/05/28 07:38:53;;;;;;;4.25;0.98;;;;;;;14.64;50.78;102091.44;5046859;28;20041;-75
2022/05/28 07:41:24;;;;;;;3.85;0.77;;;;;;;14.57;50.15;102081.03;5045849;28;20866;-74
2022/05/28 07:43:53;;;;;;;9.23;1.30;;;;;;;14.58;50.64;102095.13;5049383;28;20041;-75
2022/05/28 07:46:25;;;;;;;6.82;1.00;;;;;;;14.64;50.76;102095.00;5048420;28;20041;-74
2022/05/28 07:48:55;;;;;;;4.82;1.17;;;;;;;14.54;51.63;102093.50;5045212;28;20073;-73
2022/05/28 07:51:23;;;;;;;5.78;1.10;;;;;;;14.62;51.31;102096.81;5048364;28;20049;-75
2022/05/28 07:53:51;;;;;;;4.45;0.82;;;;;;;14.72;51.50;102089.47;5036303;28;20722;-76
2022/05/28 07:56:20;;;;;;;2.70;0.60;;;;;;;14.85;48.04;102076.75;5033745;28;20038;-75
2022/05/28 07:58:47;;;;;;;7.13;0.80;;;;;;;14.90;48.01;102082.78;5027481;28;20124;-73
2022/05/28 08:01:24;;;;;;;5.20;0.90;;;;;;;15.01;46.87;102087.78;5029090;28;20030;-73
2022/05/28 08:04:17;;;;;;;8.05;1.08;;;;;;;15.09;45.54;102088.44;5036000;28;20046;-74
2022/05/28 08:06:44;;;;;;;4.90;1.00;;;;;;;15.05;44.06;102082.34;5033618;28;20506;-73
2022/05/28 08:09:12;;;;;;;7.47;1.02;;;;;;;15.21;44.38;102084.53;5029766;28;20038;-72
2022/05/28 08:11:40;;;;;;;4.22;0.70;;;;;;;14.98;43.97;102082.56;5037652;28;20062;-72
2022/05/28 08:14:08;;;;;;;7.78;1.20;;;;;;;15.02;45.80;102065.63;5028263;28;20046;-74
2022/05/28 08:16:38;;;;;;;7.57;1.13;;;;;;;15.14;45.96;102075.03;5040234;28;20143;-73
2022/05/28 08:19:06;;;;;;;4.15;0.68;;;;;;;15.38;45.88;102071.59;5035556;28;20164;-74
2022/05/28 08:24:23;;;;;;;5.70;1.30;;;;;;;15.68;44.67;102068.03;5034997;28;20184;-70
2022/05/28 08:26:51;;;;;;;7.40;1.15;;;;;;;15.87;44.62;102072.78;5043031;28;20124;-74
2022/05/28 08:29:22;;;;;;;7.68;1.02;;;;;;;16.01;44.86;102059.91;5039800;28;20035;-71
2022/05/28 08:31:49;;;;;;;5.22;0.95;;;;;;;15.76;45.25;102071.31;5039670;28;20116;-71
2022/05/28 08:34:17;;;;;;;4.57;1.30;;;;;;;15.93;44.11;102073.44;5043120;28;20034;-71
2022/05/28 08:36:44;;;;;;;9.43;1.00;;;;;;;16.02;43.00;102077.59;5033292;28;20041;-70
2022/05/28 08:39:15;;;;;;;8.82;1.10;;;;;;;16.09;41.97;102080.91;5035877;28;20041;-70
2022/05/28 08:41:57;;;;;;;9.70;1.20;;;;;;;16.10;41.91;102074.66;5047536;28;20072;-72
2022/05/28 08:44:32;;;;;;;6.30;0.90;;;;;;;16.17;43.11;102064.69;5047668;28;20034;-71
2022/05/28 08:47:27;;;;;;;7.78;1.13;;;;;;;16.30;41.91;102076.66;5032498;28;20771;-72
2022/05/28 08:49:55;;;;;;;7.53;1.00;;;;;;;16.36;41.90;102073.78;5028228;28;20050;-70
2022/05/28 08:52:33;;;;;;;5.93;1.00;;;;;;;16.37;41.25;102067.53;5029824;28;20046;-73
2022/05/28 08:55:10;;;;;;;5.78;0.93;;;;;;;16.38;40.26;102065.75;5031405;28;20128;-70
2022/05/28 08:58:14;;;;;;;7.22;0.98;;;;;;;16.48;40.10;102059.19;5030559;28;20405;-72
2022/05/28 09:01:08;;;;;;;3.20;0.90;;;;;;;16.57;40.07;102065.94;5033747;28;20062;-71
2022/05/28 09:04:01;;;;;;;3.88;0.85;;;;;;;16.71;40.39;102057.44;5034321;28;20069;-73
2022/05/28 09:06:39;;;;;;;9.98;0.93;;;;;;;16.84;39.78;102060.56;5033146;28;20125;-72
2022/05/28 09:09:10;;;;;;;5.38;0.90;;;;;;;16.95;40.04;102057.50;5042929;28;20042;-73
2022/05/28 09:11:55;;;;;;;6.85;1.02;;;;;;;17.24;40.59;102053.72;5049800;28;20050;-72
2022/05/28 09:14:34;;;;;;;6.32;1.10;;;;;;;17.52;37.88;102057.94;5043408;28;20151;-71
2022/05/28 09:17:17;;;;;;;5.03;0.82;;;;;;;17.46;38.96;102059.06;5031163;28;20042;-72
2022/05/28 09:19:45;;;;;;;4.68;0.90;;;;;;;17.46;38.65;102053.72;5047087;28;20034;-73
2022/05/28 09:22:13;;;;;;;3.80;0.80;;;;;;;17.28;40.73;102073.13;5043749;28;20065;-72
2022/05/28 09:24:41;;;;;;;3.85;0.73;;;;;;;16.95;41.04;102069.00;5043670;28;20507;-71
2022/05/28 09:27:41;;;;;;;5.75;1.13;;;;;;;16.57;42.97;102085.47;5035106;28;20048;-73
2022/05/28 09:30:45;;;;;;;4.90;1.10;;;;;;;16.25;44.07;102079.47;5030980;28;20137;-71
2022/05/28 09:33:42;;;;;;;12.35;1.10;;;;;;;15.94;44.58;102080.53;5037635;28;20492;-73
2022/05/28 09:36:44;;;;;;;7.47;1.50;;;;;;;15.94;44.87;102076.97;5030409;28;20042;-72
2022/05/28 09:39:56;;;;;;;6.38;0.98;;;;;;;16.05;45.17;102068.66;5036440;28;20117;-72
2022/05/28 09:42:48;;;;;;;10.95;1.15;;;;;;;16.24;44.37;102066.22;5033939;28;20464;-74
2022/05/28 09:45:35;;;;;;;5.55;1.00;;;;;;;16.48;43.21;102060.94;5041331;28;20041;-74
2022/05/28 09:48:03;;;;;;;3.55;0.90;;;;;;;16.68;40.93;102057.59;5049889;28;20128;-75
2022/05/28 09:50:42;;;;;;;6.63;1.38;;;;;;;16.79;40.00;102060.69;5050903;28;20041;-74
2022/05/28 09:56:23;;;;;;;2.53;0.95;;;;;;;16.89;38.32;102059.41;5045700;28;20095;-70
2022/05/28 09:58:53;;;;;;;4.78;0.90;;;;;;;17.00;36.87;102053.75;5031652;28;20060;-75
2022/05/28 10:01:25;;;;;;;4.63;0.80;;;;;;;17.14;37.16;102044.34;5031347;28;20041;-74
2022/05/28 10:07:08;;;;;;;4.10;0.90;;;;;;;17.67;36.98;102038.66;4987167;28;20035;-71
2022/05/28 10:09:48;;;;;;;4.07;1.17;;;;;;;17.92;36.46;102044.75;5030735;28;20057;-73
2022/05/28 10:12:30;;;;;;;11.13;0.88;;;;;;;18.10;35.80;102035.13;5048616;28;20089;-73
2022/05/28 10:15:23;;;;;;;2.38;0.77;;;;;;;18.25;35.03;102038.94;5036954;28;20117;-73
2022/05/28 10:18:02;;;;;;;2.97;0.63;;;;;;;18.22;35.63;102021.25;5037479;28;20034;-75
2022/05/28 10:20:29;;;;;;;7.82;1.00;;;;;;;18.07;36.14;102037.94;5049340;28;20034;-75
2022/05/28 10:23:07;;;;;;;2.95;0.80;;;;;;;17.90;36.82;102049.31;5048065;28;20063;-73
2022/05/28 10:25:48;;;;;;;4.43;1.10;;;;;;;17.53;37.67;102044.53;5050507;28;20045;-74
2022/05/28 10:28:42;;;;;;;5.72;0.82;;;;;;;17.19;38.38;102043.25;5043277;28;20042;-73
2022/05/28 10:31:40;;;;;;;2.28;0.68;;;;;;;16.75;39.58;102035.97;5033013;28;20085;-73
2022/05/28 10:34:21;;;;;;;9.05;1.00;;;;;;;16.72;40.39;102036.09;5048059;28;20049;-74
2022/05/28 10:36:50;;;;;;;6.15;1.13;;;;;;;16.96;41.23;102037.94;5042436;28;20095;-74
2022/05/28 10:39:18;;;;;;;8.02;1.08;;;;;;;17.31;40.93;102039.22;5041836;28;20045;-73
2022/05/28 10:41:53;;;;;;;11.88;1.15;;;;;;;17.69;39.27;102027.94;5046517;28;20096;-76
2022/05/28 10:44:24;;;;;;;7.47;0.90;;;;;;;18.10;37.02;102037.81;5043474;28;20117;-74
2022/05/28 10:47:11;;;;;;;4.50;0.90;;;;;;;17.88;36.29;102027.16;5048894;28;20038;-74
2022/05/28 10:50:19;;;;;;;4.53;1.00;;;;;;;17.58;36.67;102031.03;5044159;28;20168;-75
2022/05/28 10:53:16;;;;;;;5.88;0.80;;;;;;;17.31;38.05;102039.22;5044928;28;20164;-71
2022/05/28 10:56:02;;;;;;;4.28;0.80;;;;;;;17.11;39.66;102040.00;5061537;28;20042;-72
2022/05/28 10:58:43;;;;;;;8.38;1.27;;;;;;;16.88;40.72;102033.75;5042541;28;20938;-71
2022/05/28 11:02:15;;;;;;;5.82;1.23;;;;;;;16.77;41.56;102047.44;5039019;28;20077;-71
2022/05/28 11:05:07;;;;;;;5.45;1.00;;;;;;;16.83;41.65;102034.84;5053582;28;20613;-71
2022/05/28 11:08:11;;;;;;;6.18;1.40;;;;;;;16.93;42.13;102038.91;5047670;28;20038;-74
2022/05/28 11:11:14;;;;;;;7.40;1.42;;;;;;;17.23;41.33;102028.84;5044560;28;20848;-71
2022/05/28 11:14:00;;;;;;;4.15;0.90;;;;;;;17.53;39.70;102020.56;5038535;28;20412;-70
2022/05/28 11:17:29;;;;;;;5.35;1.20;;;;;;;17.79;38.61;102012.41;5047808;28;20033;-73
2022/05/28 11:20:19;;;;;;;9.50;1.15;;;;;;;17.84;37.47;102024.59;5021663;28;20048;-73
2022/05/28 11:23:18;;;;;;;6.93;1.25;;;;;;;17.37;37.54;102014.97;5009124;28;20157;-71
2022/05/28 11:26:36;;;;;;;7.43;1.48;;;;;;;17.49;38.85;102018.06;5042046;28;20768;-70
2022/05/28 11:29:26;;;;;;;4.65;0.98;;;;;;;17.51;38.14;102010.88;5036266;28;20113;-74
2022/05/28 11:32:01;;;;;;;3.88;0.93;;;;;;;17.83;37.54;102006.00;5044824;28;20046;-73
2022/05/28 11:35:00;;;;;;;5.28;1.33;;;;;;;18.12;38.47;102010.09;5046532;28;20048;-72
2022/05/28 11:37:41;;;;;;;8.93;1.15;;;;;;;18.45;37.56;101998.88;5042734;28;20810;-75
2022/05/28 11:40:37;;;;;;;4.15;1.02;;;;;;;18.52;37.40;101998.63;5047462;28;20598;-73
2022/05/28 11:43:15;;;;;;;9.35;1.48;;;;;;;18.26;36.62;102004.16;5044380;28;20061;-74
2022/05/28 11:45:53;;;;;;;4.95;0.90;;;;;;;17.98;37.44;102002.72;5045352;28;20044;-73
2022/05/28 11:52:21;;;;;;;4.80;0.90;;;;;;;17.46;37.83;101991.53;5010961;28;20053;-72
2022/05/28 11:55:03;;;;;;;9.32;1.17;;;;;;;17.15;38.46;101987.44;5042455;28;20061;-74
2022/05/28 11:57:54;;;;;;;5.45;1.02;;;;;;;17.12;39.15;101993.78;5039501;28;20040;-72
2022/05/28 12:00:25;;;;;;;4.25;1.30;;;;;;;17.30;39.63;101993.97;5049230;28;20124;-73
2022/05/28 12:03:05;;;;;;;8.05;1.38;;;;;;;17.76;39.58;101984.06;5044688;28;20491;-71
2022/05/28 12:05:48;;;;;;;5.47;1.45;;;;;;;18.03;39.06;101983.84;5043814;28;20034;-73
2022/05/28 12:08:39;;;;;;;5.80;1.27;;;;;;;18.04;38.65;101984.72;5028986;28;20038;-74